createdAt,value
2019-02-23T00:00:48.358Z,17.87
2019-02-23T00:03:17.715Z,17.03
2019-02-23T00:05:47.015Z,15.30
2019-02-23T00:08:16.295Z,14.53
2019-02-23T00:10:45.594Z,16.20
2019-02-23T00:13:14.878Z,15.77
2019-02-23T00:15:44.171Z,16.97
2019-02-23T00:18:13.456Z,16.73
2019-02-23T00:20:42.734Z,18.43
2019-02-23T00:23:12.034Z,16.67
2019-02-23T00:25:41.316Z,16.97
2019-02-23T00:28:10.608Z,16.40
2019-02-23T00:30:39.893Z,16.63
2019-02-23T00:33:09.210Z,17.97
2019-02-23T00:35:38.475Z,16.73
2019-02-23T00:38:07.780Z,15.63
2019-02-23T00:40:37.064Z,17.00
2019-02-23T00:43:06.430Z,16.60
2019-02-23T00:45:35.724Z,17.10
2019-02-23T00:48:05.047Z,17.83
2019-02-23T00:50:34.327Z,16.90
2019-02-23T00:53:03.627Z,15.90
2019-02-23T00:55:32.913Z,17.73
2019-02-23T00:58:02.207Z,16.63
2019-02-23T01:00:31.488Z,16.03
2019-02-23T01:03:00.784Z,16.50
2019-02-23T01:05:30.065Z,17.43
2019-02-23T01:07:59.355Z,18.50
2019-02-23T01:10:28.646Z,16.13
2019-02-23T01:12:57.938Z,16.47
2019-02-23T01:15:27.224Z,16.93
2019-02-23T01:17:56.517Z,16.80
2019-02-23T01:20:25.799Z,15.90
2019-02-23T01:22:55.091Z,18.17
2019-02-23T01:25:24.384Z,16.73
2019-02-23T01:27:53.675Z,17.27
2019-02-23T01:30:22.973Z,17.60
2019-02-23T01:32:52.263Z,17.50
2019-02-23T01:35:21.546Z,18.80
2019-02-23T01:37:50.842Z,16.60
2019-02-23T01:40:20.127Z,14.53
2019-02-23T01:42:49.431Z,15.77
2019-02-23T01:45:18.708Z,16.00
2019-02-23T01:47:47.999Z,13.73
2019-02-23T01:50:17.283Z,14.00
2019-02-23T01:52:46.643Z,13.17
2019-02-23T01:55:15.935Z,14.10
2019-02-23T01:57:45.225Z,12.87
2019-02-23T02:00:15.327Z,13.80
2019-02-23T02:02:46.003Z,13.37
2019-02-23T02:05:15.360Z,13.13
2019-02-23T02:07:44.727Z,13.47
2019-02-23T02:10:14.179Z,13.20
2019-02-23T02:12:43.470Z,13.93
2019-02-23T02:15:14.696Z,13.10
2019-02-23T02:17:43.987Z,13.90
2019-02-23T02:20:13.341Z,13.33
2019-02-23T02:22:42.626Z,13.83
2019-02-23T02:25:13.004Z,14.07
2019-02-23T02:27:42.283Z,14.33
2019-02-23T02:30:11.992Z,13.60
2019-02-23T02:32:41.272Z,13.87
2019-02-23T02:35:11.062Z,14.07
2019-02-23T02:37:41.370Z,13.97
2019-02-23T02:40:10.768Z,14.40
2019-02-23T02:42:40.049Z,13.90
2019-02-23T02:45:10.980Z,13.37
2019-02-23T02:47:40.252Z,13.23
2019-02-23T02:50:23.370Z,14.60
2019-02-23T02:52:42.242Z,14.17
2019-02-23T02:55:11.535Z,14.00
2019-02-23T02:57:40.821Z,14.97
2019-02-23T03:00:11.953Z,13.90
2019-02-23T03:02:41.408Z,14.30
2019-02-23T03:05:10.947Z,14.10
2019-02-23T03:07:40.226Z,14.00
2019-02-23T03:10:09.519Z,14.57
2019-02-23T03:12:38.804Z,14.60
2019-02-23T03:15:08.636Z,14.13
2019-02-23T03:17:37.915Z,15.03
2019-02-23T03:20:08.899Z,14.13
2019-02-23T03:22:39.281Z,13.53
2019-02-23T03:25:08.595Z,14.03
2019-02-23T03:27:37.874Z,13.93
2019-02-23T03:30:10.000Z,14.73
2019-02-23T03:32:39.287Z,16.00
2019-02-23T03:35:08.579Z,14.70
2019-02-23T03:37:37.866Z,14.40
2019-02-23T03:40:08.957Z,13.60
2019-02-23T03:42:39.287Z,14.40
2019-02-23T03:45:08.715Z,14.67
2019-02-23T03:47:38.023Z,13.37
2019-02-23T03:50:07.860Z,13.90
2019-02-23T03:52:37.147Z,14.17
2019-02-23T03:55:06.444Z,16.20
2019-02-23T03:57:35.727Z,16.37
2019-02-23T04:00:09.243Z,15.47
2019-02-23T04:02:38.530Z,17.40
2019-02-23T04:05:07.883Z,16.50
2019-02-23T04:07:37.174Z,16.93
2019-02-23T04:10:07.908Z,15.67
2019-02-23T04:12:37.187Z,14.83
2019-02-23T04:15:07.428Z,13.90
2019-02-23T04:17:36.721Z,15.97
2019-02-23T04:20:07.564Z,15.43
2019-02-23T04:22:36.841Z,15.37
2019-02-23T04:25:07.966Z,14.90
2019-02-23T04:27:38.232Z,15.20
2019-02-23T04:30:08.689Z,13.67
2019-02-23T04:32:37.973Z,14.63
2019-02-23T04:35:07.361Z,13.80
2019-02-23T04:37:36.641Z,14.53
2019-02-23T04:40:06.475Z,15.67
2019-02-23T04:42:35.760Z,14.33
2019-02-23T04:45:06.896Z,16.30
2019-02-23T04:47:36.182Z,15.33
2019-02-23T04:50:08.419Z,16.17
2019-02-23T04:52:37.703Z,15.87
2019-02-23T04:55:08.459Z,16.10
2019-02-23T04:57:37.735Z,16.13
2019-02-23T05:00:10.502Z,17.10
2019-02-23T05:02:39.836Z,17.90
2019-02-23T05:05:09.659Z,16.93
2019-02-23T05:07:38.946Z,17.60
2019-02-23T05:10:09.063Z,17.00
2019-02-23T05:12:38.355Z,17.60
2019-02-23T05:15:09.784Z,16.70
2019-02-23T05:17:39.071Z,16.20
2019-02-23T05:20:08.352Z,17.47
2019-02-23T05:22:37.648Z,17.20
2019-02-23T05:25:06.936Z,18.07
2019-02-23T05:27:36.232Z,16.93
2019-02-23T05:30:08.260Z,18.13
2019-02-23T05:32:37.548Z,17.93
2019-02-23T05:35:09.576Z,17.30
2019-02-23T05:37:38.868Z,18.03
2019-02-23T05:40:10.683Z,18.00
2019-02-23T05:42:39.995Z,18.60
2019-02-23T05:45:10.908Z,19.33
2019-02-23T05:47:40.199Z,17.40
2019-02-23T05:50:10.050Z,18.00
2019-02-23T05:52:39.338Z,17.47
2019-02-23T05:55:08.624Z,19.27
2019-02-23T05:57:37.923Z,18.63
2019-02-23T06:00:12.533Z,18.77
2019-02-23T06:02:44.796Z,19.10
2019-02-23T06:05:12.798Z,19.60
2019-02-23T06:07:42.086Z,19.17
2019-02-23T06:10:11.373Z,19.87
2019-02-23T06:12:40.663Z,18.90
2019-02-23T06:15:11.987Z,20.07
2019-02-23T06:17:42.250Z,19.27
2019-02-23T06:20:11.559Z,18.43
2019-02-23T06:22:40.851Z,18.87
2019-02-23T06:25:10.143Z,17.93
2019-02-23T06:27:39.511Z,19.80
2019-02-23T06:30:11.439Z,20.17
2019-02-23T06:32:40.730Z,20.43
2019-02-23T06:35:10.490Z,19.57
2019-02-23T06:37:39.792Z,19.30
2019-02-23T06:40:10.618Z,19.27
2019-02-23T06:42:39.900Z,20.10
2019-02-23T06:45:11.503Z,20.00
2019-02-23T06:47:40.791Z,17.57
2019-02-23T06:50:10.075Z,19.40
2019-02-23T06:52:39.452Z,18.37
2019-02-23T06:55:08.968Z,20.00
2019-02-23T06:57:38.260Z,19.77
2019-02-23T07:00:10.628Z,20.40
2019-02-23T07:02:39.911Z,20.10
2019-02-23T07:05:09.265Z,20.70
2019-02-23T07:07:38.584Z,17.87
2019-02-23T07:10:12.650Z,19.53
2019-02-23T07:12:42.986Z,18.87
2019-02-23T07:15:12.273Z,19.80
2019-02-23T07:17:41.569Z,18.67
2019-02-23T07:20:11.387Z,19.17
2019-02-23T07:22:40.759Z,18.00
2019-02-23T07:25:10.809Z,20.50
2019-02-23T07:27:40.100Z,20.97
2019-02-23T07:30:12.025Z,21.37
2019-02-23T07:32:41.319Z,19.77
2019-02-23T07:35:10.671Z,20.03
2019-02-23T07:37:39.969Z,18.37
2019-02-23T07:40:12.050Z,20.60
2019-02-23T07:42:41.419Z,21.27
2019-02-23T07:45:11.035Z,22.17
2019-02-23T07:47:40.327Z,20.17
2019-02-23T07:50:14.411Z,19.73
2019-02-23T07:52:43.701Z,20.07
2019-02-23T07:55:12.983Z,19.07
2019-02-23T07:57:42.347Z,19.10
2019-02-23T08:00:13.175Z,19.53
2019-02-23T08:02:42.463Z,18.50
2019-02-23T08:05:11.734Z,19.80
2019-02-23T08:07:41.048Z,18.90
2019-02-23T08:10:11.978Z,18.00
2019-02-23T08:12:41.337Z,18.57
2019-02-23T08:15:11.585Z,18.17
2019-02-23T08:17:40.867Z,19.63
2019-02-23T08:20:11.798Z,18.60
2019-02-23T08:22:41.242Z,18.07
2019-02-23T08:25:13.527Z,18.10
2019-02-23T08:27:42.829Z,18.13
2019-02-23T08:30:16.569Z,19.10
2019-02-23T08:32:45.846Z,18.67
2019-02-23T08:35:15.142Z,18.73
2019-02-23T08:37:44.449Z,18.87
2019-02-23T08:40:16.093Z,18.83
2019-02-23T08:42:45.375Z,17.93
2019-02-23T08:45:14.682Z,18.60
2019-02-23T08:47:43.966Z,19.07
2019-02-23T08:50:15.191Z,19.07
2019-02-23T08:52:49.896Z,18.53
2019-02-23T08:55:16.495Z,17.33
2019-02-23T08:57:45.784Z,18.90
2019-02-23T09:00:17.054Z,17.87
2019-02-23T09:02:46.388Z,17.47
2019-02-23T09:05:15.697Z,18.90
2019-02-23T09:07:46.042Z,19.33
2019-02-23T09:10:15.995Z,18.63
2019-02-23T09:12:45.261Z,18.97
2019-02-23T09:15:14.571Z,18.67
2019-02-23T09:17:43.857Z,18.60
2019-02-23T09:20:13.346Z,19.10
2019-02-23T09:22:42.645Z,18.73
2019-02-23T09:25:11.975Z,19.00
2019-02-23T09:27:41.308Z,19.30
2019-02-23T09:30:12.438Z,18.87
2019-02-23T09:32:41.856Z,19.87
2019-02-23T09:35:11.267Z,18.77
2019-02-23T09:37:41.503Z,19.40
2019-02-23T09:40:13.887Z,21.70
2019-02-23T09:42:43.166Z,19.70
2019-02-23T09:45:12.708Z,18.17
2019-02-23T09:47:41.989Z,20.37
2019-02-23T09:50:11.274Z,19.60
2019-02-23T09:52:40.555Z,19.73
2019-02-23T09:55:09.919Z,19.47
2019-02-23T09:57:39.205Z,19.93
2019-02-23T10:00:13.626Z,20.57
2019-02-23T10:02:42.912Z,20.17
2019-02-23T10:05:12.207Z,20.03
2019-02-23T10:07:41.504Z,19.07
2019-02-23T10:10:11.452Z,19.20
2019-02-23T10:12:40.771Z,19.00
2019-02-23T10:15:11.437Z,19.70
2019-02-23T10:17:41.755Z,19.50
2019-02-23T10:20:12.192Z,19.07
2019-02-23T10:22:42.538Z,19.83
2019-02-23T10:25:11.917Z,19.63
2019-02-23T10:27:41.263Z,17.43
2019-02-23T10:30:14.667Z,18.37
2019-02-23T10:32:43.930Z,18.83
2019-02-23T10:35:14.108Z,17.10
2019-02-23T10:37:43.400Z,17.93
2019-02-23T10:40:13.054Z,17.43
2019-02-23T10:42:42.346Z,17.43
2019-02-23T10:45:13.433Z,18.30
2019-02-23T10:47:42.724Z,16.30
2019-02-23T10:50:13.655Z,16.53
2019-02-23T10:52:44.002Z,16.63
2019-02-23T10:55:15.214Z,14.73
2019-02-23T10:57:44.510Z,15.53
2019-02-23T11:00:19.748Z,14.93
2019-02-23T11:02:49.166Z,13.37
2019-02-23T11:05:18.780Z,13.63
2019-02-23T11:07:48.073Z,13.53
2019-02-23T11:10:17.836Z,13.80
2019-02-23T11:12:47.119Z,14.67
2019-02-23T11:15:18.135Z,13.97
2019-02-23T11:17:47.470Z,13.20
2019-02-23T11:20:17.402Z,13.70
2019-02-23T11:22:46.763Z,12.17
2019-02-23T11:25:16.115Z,14.47
2019-02-23T11:27:45.423Z,13.17
2019-02-23T11:30:15.848Z,12.90
2019-02-23T11:32:45.136Z,12.77
2019-02-23T11:35:17.351Z,13.03
2019-02-23T11:37:47.731Z,13.33
2019-02-23T11:40:17.095Z,12.53
2019-02-23T11:42:46.391Z,13.50
2019-02-23T11:45:15.679Z,14.17
2019-02-23T11:47:44.975Z,13.63
2019-02-23T11:50:16.743Z,12.63
2019-02-23T11:52:47.667Z,13.97
2019-02-23T11:55:16.958Z,13.80
2019-02-23T11:57:46.325Z,13.70
2019-02-23T12:00:15.950Z,14.67
2019-02-23T12:02:52.515Z,13.50
2019-02-23T12:05:16.230Z,13.37
2019-02-23T12:07:45.609Z,15.23
2019-02-23T12:10:16.510Z,14.10
2019-02-23T12:12:45.828Z,14.10
2019-02-23T12:15:15.189Z,13.27
2019-02-23T12:17:44.487Z,13.73
2019-02-23T12:20:13.779Z,13.20
2019-02-23T12:22:43.090Z,13.10
2019-02-23T12:25:15.731Z,13.70
2019-02-23T12:27:43.448Z,13.73
2019-02-23T12:30:12.740Z,12.50
2019-02-23T12:32:42.035Z,13.90
2019-02-23T12:35:11.764Z,12.90
2019-02-23T12:37:41.061Z,12.80
2019-02-23T12:40:10.983Z,13.23
2019-02-23T12:42:41.246Z,13.10
2019-02-23T12:45:12.278Z,12.37
2019-02-23T12:47:41.703Z,12.30
2019-02-23T12:50:12.134Z,12.70
2019-02-23T12:52:41.435Z,13.97
2019-02-23T12:55:11.564Z,14.30
2019-02-23T12:57:40.853Z,15.70
2019-02-23T13:00:15.300Z,15.77
2019-02-23T13:02:44.595Z,15.70
2019-02-23T13:05:14.055Z,13.70
2019-02-23T13:07:43.367Z,14.70
2019-02-23T13:10:13.400Z,14.93
2019-02-23T13:12:54.958Z,17.43
2019-02-23T13:15:40.431Z,14.77
2019-02-23T13:18:47.489Z,14.60
2019-02-23T13:21:25.719Z,16.17
2019-02-23T13:24:04.129Z,14.67
2019-02-23T13:26:42.385Z,14.97
2019-02-23T13:29:29.557Z,14.93
2019-02-23T13:32:04.778Z,14.70
2019-02-23T13:34:42.726Z,16.00
2019-02-23T13:37:23.875Z,15.37
2019-02-23T13:40:14.681Z,15.40
2019-02-23T13:42:52.939Z,14.53
2019-02-23T13:45:37.207Z,14.87
2019-02-23T13:48:21.029Z,15.00
2019-02-23T13:51:10.350Z,14.13
2019-02-23T13:54:01.174Z,14.87
2019-02-23T13:56:36.490Z,15.57
2019-02-23T13:59:20.708Z,15.23
2019-02-23T14:01:53.075Z,15.67
2019-02-23T14:04:43.666Z,15.43
2019-02-23T14:07:16.048Z,14.97
2019-02-23T14:10:21.697Z,15.13
2019-02-23T14:13:05.858Z,15.37
2019-02-23T14:16:04.043Z,16.37
2019-02-23T14:18:36.422Z,14.97
2019-02-23T14:21:25.344Z,14.63
2019-02-23T14:24:13.999Z,14.97
2019-02-23T14:27:01.076Z,15.93
2019-02-23T14:29:47.684Z,16.50
2019-02-23T14:32:38.883Z,16.00
2019-02-23T14:35:32.201Z,16.23
2019-02-23T14:38:24.995Z,16.10
2019-02-23T14:41:02.860Z,13.73
2019-02-23T14:43:41.311Z,15.13
2019-02-23T14:46:25.619Z,14.87
2019-02-23T14:49:13.278Z,14.97
2019-02-23T14:52:05.032Z,15.70
2019-02-23T14:54:58.245Z,15.20
2019-02-23T14:57:58.336Z,15.00
2019-02-23T15:00:37.702Z,14.50
2019-02-23T15:03:32.702Z,15.17
2019-02-23T15:06:07.711Z,15.27
2019-02-23T15:08:55.098Z,16.77
2019-02-23T15:11:27.478Z,19.63
2019-02-23T15:14:34.992Z,15.93
2019-02-23T15:17:19.392Z,14.93
2019-02-23T15:20:08.292Z,17.07
2019-02-23T15:29:22.158Z,16.10
2019-02-23T15:35:25.899Z,14.43
2019-02-23T15:38:01.410Z,14.47
2019-02-23T15:40:51.928Z,14.23
2019-02-23T15:43:36.146Z,14.40
2019-02-23T15:46:08.595Z,14.23
2019-02-23T15:48:50.068Z,12.87
2019-02-23T15:51:19.429Z,13.00
2019-02-23T15:53:48.739Z,13.93
2019-02-23T15:56:18.076Z,13.47
2019-02-23T15:58:47.374Z,13.53
2019-02-23T16:01:17.559Z,14.00
2019-02-23T16:03:46.851Z,13.83
2019-02-23T16:06:17.123Z,14.00
2019-02-23T16:08:46.409Z,13.57
2019-02-23T16:11:15.706Z,13.47
2019-02-23T16:13:45.971Z,13.23
2019-02-23T16:16:15.337Z,13.30
2019-02-23T16:18:45.607Z,13.83
2019-02-23T16:21:14.911Z,12.40
2019-02-23T16:23:44.251Z,14.23
2019-02-23T16:26:13.622Z,15.93
2019-02-23T16:40:30.877Z,14.17
2019-02-23T16:48:45.235Z,14.40
2019-02-23T16:51:15.438Z,13.43
2019-02-23T16:53:44.726Z,16.20
2019-02-23T16:56:14.025Z,18.60
2019-02-23T16:58:43.311Z,18.23
2019-02-23T17:01:12.595Z,19.37
2019-02-23T17:03:41.890Z,17.97
2019-02-23T17:06:12.154Z,14.87
2019-02-23T17:08:41.448Z,15.33
2019-02-23T17:11:10.732Z,15.57
2019-02-23T17:13:40.025Z,16.33
2019-02-23T17:16:09.311Z,19.17
2019-02-23T17:18:38.610Z,16.80
2019-02-23T17:21:07.896Z,14.87
2019-02-23T17:23:37.187Z,14.00
2019-02-23T17:26:06.471Z,14.33
2019-02-23T17:28:35.764Z,13.83
2019-02-23T17:31:05.091Z,13.60
2019-02-23T17:33:34.378Z,13.90
2019-02-23T17:36:03.668Z,14.60
2019-02-23T17:38:32.951Z,13.53
2019-02-23T17:41:02.251Z,13.37
2019-02-23T17:43:31.536Z,11.80
2019-02-23T17:46:00.818Z,14.63
2019-02-23T17:51:00.409Z,17.57
2019-02-23T17:53:29.690Z,16.37
2019-02-23T17:55:58.973Z,16.90
2019-02-23T17:58:28.270Z,15.40
2019-02-23T18:00:57.627Z,14.60
2019-02-23T18:03:26.919Z,13.27
2019-02-23T18:05:56.200Z,14.10
2019-02-23T18:08:25.499Z,15.50
2019-02-23T18:10:54.778Z,15.23
2019-02-23T18:13:24.082Z,16.03
2019-02-23T18:15:53.389Z,16.80
2019-02-23T18:18:22.710Z,17.70
2019-02-23T18:20:52.014Z,17.43
2019-02-23T18:23:21.304Z,15.10
2019-02-23T18:25:52.332Z,15.37
2019-02-23T18:28:21.620Z,15.60
2019-02-23T18:30:50.920Z,15.40
2019-02-23T18:33:20.213Z,15.27
2019-02-23T18:35:49.581Z,14.87
2019-02-23T18:38:18.855Z,15.23
2019-02-23T18:40:52.414Z,14.27
2019-02-23T18:43:23.008Z,15.30
2019-02-23T18:45:54.497Z,15.67
2019-02-23T18:48:25.771Z,15.67
2019-02-23T18:50:55.167Z,15.80
2019-02-23T18:53:24.475Z,15.37
2019-02-23T18:55:53.752Z,15.70
2019-02-23T18:58:23.175Z,15.53
2019-02-23T19:00:52.503Z,15.50
2019-02-23T19:03:21.866Z,17.13
2019-02-23T19:05:51.222Z,15.93
2019-02-23T19:08:20.591Z,16.77
2019-02-23T19:10:49.939Z,17.50
2019-02-23T19:13:19.278Z,18.73
2019-02-23T19:15:48.583Z,18.03
2019-02-23T19:18:18.969Z,18.90
2019-02-23T19:20:48.363Z,18.93
2019-02-23T19:23:17.705Z,19.43
2019-02-23T19:25:48.140Z,19.83
2019-02-23T19:28:18.618Z,18.93
2019-02-23T19:30:47.933Z,20.13
2019-02-23T19:33:17.273Z,18.83
2019-02-23T19:35:46.547Z,18.90
2019-02-23T19:38:15.844Z,18.47
2019-02-23T19:40:45.155Z,20.07
2019-02-23T19:43:14.434Z,16.90
2019-02-23T19:45:44.703Z,17.67
2019-02-23T19:48:13.982Z,17.73
2019-02-23T19:50:46.479Z,17.23
2019-02-23T19:53:15.844Z,16.60
2019-02-23T19:55:45.144Z,19.03
2019-02-23T19:58:14.487Z,18.37
2019-02-23T20:00:43.837Z,16.93
2019-02-23T20:03:13.190Z,18.53
2019-02-23T20:05:42.554Z,17.37
2019-02-23T20:08:11.911Z,17.73
2019-02-23T20:10:42.926Z,17.00
2019-02-23T20:13:12.381Z,16.77
2019-02-23T20:15:41.664Z,17.10
2019-02-23T20:18:10.954Z,17.83
2019-02-23T20:20:40.522Z,17.70
2019-02-23T20:23:09.835Z,17.63
2019-02-23T20:25:39.118Z,18.13
2019-02-23T20:28:08.474Z,19.37
2019-02-23T20:30:37.831Z,18.57
2019-02-23T20:33:07.184Z,18.63
2019-02-23T20:35:37.441Z,18.90
2019-02-23T20:38:06.800Z,18.13
2019-02-23T20:40:36.093Z,19.47
2019-02-23T20:43:05.379Z,17.73
2019-02-23T20:45:34.682Z,18.33
2019-02-23T20:48:04.044Z,18.13
2019-02-23T20:50:33.346Z,18.50
2019-02-23T20:53:02.796Z,17.90
2019-02-23T20:55:32.093Z,18.70
2019-02-23T20:58:01.515Z,18.20
2019-02-23T21:00:30.810Z,18.10
2019-02-23T21:03:00.091Z,17.80
2019-02-23T21:05:29.387Z,18.97
2019-02-23T21:07:58.671Z,17.97
2019-02-23T21:10:28.074Z,19.27
2019-02-23T21:12:57.427Z,19.10
2019-02-23T21:15:26.722Z,20.40
2019-02-23T21:17:56.046Z,21.90
2019-02-23T21:20:25.376Z,21.70
2019-02-23T21:22:54.642Z,20.50
2019-02-23T21:25:23.930Z,19.43
2019-02-23T21:27:53.209Z,18.57
2019-02-23T21:30:22.515Z,19.17
2019-02-23T21:32:51.798Z,18.63
2019-02-23T21:35:21.174Z,18.77
2019-02-23T21:37:50.461Z,19.67
2019-02-23T21:40:19.759Z,18.60
2019-02-23T21:42:49.042Z,17.40
2019-02-23T21:45:18.332Z,18.87
2019-02-23T21:47:47.610Z,19.60
2019-02-23T21:50:16.910Z,18.30
2019-02-23T21:52:47.523Z,20.27
2019-02-23T21:55:17.024Z,19.90
2019-02-23T21:57:46.304Z,19.20
2019-02-23T22:00:16.689Z,18.73
2019-02-23T22:02:46.070Z,19.00
2019-02-23T22:05:15.366Z,18.53
2019-02-23T22:07:44.662Z,18.30
2019-02-23T22:10:13.956Z,19.30
2019-02-23T22:12:43.250Z,19.40
2019-02-23T22:15:12.542Z,18.73
2019-02-23T22:17:41.798Z,22.17
2019-02-23T22:20:11.103Z,19.50
2019-02-23T22:22:40.383Z,23.47
2019-02-23T22:25:09.744Z,19.03
2019-02-23T22:27:39.022Z,19.50
2019-02-23T22:30:09.367Z,19.87
2019-02-23T22:32:38.758Z,19.30
2019-02-23T22:35:08.051Z,20.00
2019-02-23T22:37:37.329Z,19.30
2019-02-23T22:40:07.143Z,19.53
2019-02-23T22:42:36.432Z,18.83
2019-02-23T22:45:07.598Z,20.20
2019-02-23T22:47:36.882Z,19.87
2019-02-23T22:50:08.483Z,20.10
2019-02-23T22:52:37.771Z,20.17
2019-02-23T22:55:07.123Z,20.07
2019-02-23T22:57:40.614Z,19.70
2019-02-23T23:00:14.150Z,18.33
2019-02-23T23:02:45.062Z,18.60
2019-02-23T23:05:14.381Z,19.17
2019-02-23T23:07:43.719Z,19.57
2019-02-23T23:10:13.008Z,19.60
2019-02-23T23:12:42.370Z,18.60
2019-02-23T23:15:11.718Z,18.63
2019-02-23T23:17:41.010Z,19.47
2019-02-23T23:20:10.312Z,20.07
2019-02-23T23:22:39.608Z,18.90
2019-02-23T23:25:09.024Z,19.53
2019-02-23T23:27:38.318Z,18.53
2019-02-23T23:30:08.800Z,19.23
2019-02-23T23:32:39.064Z,19.87
2019-02-23T23:35:08.350Z,20.33
2019-02-23T23:37:38.606Z,18.63
2019-02-23T23:40:07.899Z,19.93
2019-02-23T23:42:37.284Z,19.40
2019-02-23T23:45:06.707Z,20.57
2019-02-23T23:47:36.007Z,20.57
2019-02-23T23:50:08.905Z,23.50
2019-02-23T23:52:38.200Z,19.80
2019-02-23T23:55:08.451Z,20.30
2019-02-23T23:57:37.752Z,20.23
